Terminal Aerodrome Forecast
Issued by NWS

Home | Current Version | Previous Version | Text Only | Print | Product List | Glossary Off
Versions: 1 2 3 4 5 6 7 8 9 10 11 12 13 14 15 16

918
FTUS43 KICT 022320
TAFHUT
TAF
KHUT 022320Z 0300/0324 05006KT P6SM OVC150
     FM031200 05007KT P6SM OVC040
     FM031600 09008KT P6SM -RA OVC025=

USA.gov is the U.S. government's official web portal to all federal, state and local government web resources and services.